sensor_id;sensor_type;location;lat;lon;timestamp;P1;durP1;ratioP1;P2;durP2;ratioP2
61413;SDS011;47279;52.426;10.488;2023-07-31T00:00:14;1.50;;;1.40;;
61413;SDS011;47279;52.426;10.488;2023-07-31T00:02:41;1.48;;;1.20;;
61413;SDS011;47279;52.426;10.488;2023-07-31T00:05:08;1.70;;;1.30;;
61413;SDS011;47279;52.426;10.488;2023-07-31T00:07:34;1.83;;;1.50;;
61413;SDS011;47279;52.426;10.488;2023-07-31T00:10:00;1.63;;;1.30;;
61413;SDS011;47279;52.426;10.488;2023-07-31T00:12:27;1.77;;;1.23;;
61413;SDS011;47279;52.426;10.488;2023-07-31T00:14:53;1.30;;;1.00;;
61413;SDS011;47279;52.426;10.488;2023-07-31T00:17:19;1.65;;;1.40;;
61413;SDS011;47279;52.426;10.488;2023-07-31T00:19:45;1.30;;;1.20;;
61413;SDS011;47279;52.426;10.488;2023-07-31T00:22:11;1.40;;;1.13;;
61413;SDS011;47279;52.426;10.488;2023-07-31T00:24:37;1.55;;;1.20;;
61413;SDS011;47279;52.426;10.488;2023-07-31T00:27:03;1.63;;;1.30;;
61413;SDS011;47279;52.426;10.488;2023-07-31T00:29:29;1.60;;;1.30;;
61413;SDS011;47279;52.426;10.488;2023-07-31T00:31:55;1.45;;;1.27;;
61413;SDS011;47279;52.426;10.488;2023-07-31T00:34:21;1.20;;;1.10;;
61413;SDS011;47279;52.426;10.488;2023-07-31T00:36:47;2.05;;;1.58;;
61413;SDS011;47279;52.426;10.488;2023-07-31T00:39:13;1.35;;;1.10;;
61413;SDS011;47279;52.426;10.488;2023-07-31T00:41:39;1.30;;;1.20;;
61413;SDS011;47279;52.426;10.488;2023-07-31T00:44:05;1.50;;;1.40;;
61413;SDS011;47279;52.426;10.488;2023-07-31T00:46:31;1.48;;;1.27;;
61413;SDS011;47279;52.426;10.488;2023-07-31T00:48:57;1.55;;;1.40;;
61413;SDS011;47279;52.426;10.488;2023-07-31T00:51:24;1.25;;;1.15;;
61413;SDS011;47279;52.426;10.488;2023-07-31T00:53:50;1.30;;;1.20;;
61413;SDS011;47279;52.426;10.488;2023-07-31T00:56:19;1.27;;;1.17;;
61413;SDS011;47279;52.426;10.488;2023-07-31T00:58:45;1.27;;;1.00;;
61413;SDS011;47279;52.426;10.488;2023-07-31T01:01:11;1.60;;;1.40;;
61413;SDS011;47279;52.426;10.488;2023-07-31T01:03:36;1.33;;;1.23;;
61413;SDS011;47279;52.426;10.488;2023-07-31T01:08:32;1.20;;;1.10;;
61413;SDS011;47279;52.426;10.488;2023-07-31T01:11:15;1.95;;;1.30;;
61413;SDS011;47279;52.426;10.488;2023-07-31T01:13:42;1.35;;;1.25;;
61413;SDS011;47279;52.426;10.488;2023-07-31T01:16:08;1.45;;;1.30;;
61413;SDS011;47279;52.426;10.488;2023-07-31T01:18:34;1.30;;;1.10;;
61413;SDS011;47279;52.426;10.488;2023-07-31T01:21:03;1.40;;;1.30;;
61413;SDS011;47279;52.426;10.488;2023-07-31T01:23:35;1.30;;;1.20;;
61413;SDS011;47279;52.426;10.488;2023-07-31T01:26:11;1.00;;;1.00;;
61413;SDS011;47279;52.426;10.488;2023-07-31T01:28:40;1.52;;;1.25;;
61413;SDS011;47279;52.426;10.488;2023-07-31T01:31:12;1.20;;;1.10;;
61413;SDS011;47279;52.426;10.488;2023-07-31T01:33:39;1.30;;;1.20;;
61413;SDS011;47279;52.426;10.488;2023-07-31T01:36:05;1.20;;;1.10;;
61413;SDS011;47279;52.426;10.488;2023-07-31T01:38:32;1.20;;;1.08;;
61413;SDS011;47279;52.426;10.488;2023-07-31T01:40:58;1.40;;;1.30;;
61413;SDS011;47279;52.426;10.488;2023-07-31T01:43:24;1.27;;;1.00;;
61413;SDS011;47279;52.426;10.488;2023-07-31T01:45:50;1.48;;;1.20;;
61413;SDS011;47279;52.426;10.488;2023-07-31T01:48:16;1.30;;;1.20;;
61413;SDS011;47279;52.426;10.488;2023-07-31T01:50:42;1.45;;;1.10;;
61413;SDS011;47279;52.426;10.488;2023-07-31T01:53:08;1.10;;;1.05;;
61413;SDS011;47279;52.426;10.488;2023-07-31T01:55:34;1.35;;;1.25;;
61413;SDS011;47279;52.426;10.488;2023-07-31T01:57:59;1.38;;;1.10;;
61413;SDS011;47279;52.426;10.488;2023-07-31T02:00:25;1.33;;;1.20;;
61413;SDS011;47279;52.426;10.488;2023-07-31T02:02:51;1.10;;;1.00;;
61413;SDS011;47279;52.426;10.488;2023-07-31T02:05:17;1.20;;;1.10;;
61413;SDS011;47279;52.426;10.488;2023-07-31T02:07:43;1.13;;;1.02;;
61413;SDS011;47279;52.426;10.488;2023-07-31T02:10:09;1.63;;;1.15;;
61413;SDS011;47279;52.426;10.488;2023-07-31T02:12:35;0.98;;;0.90;;
61413;SDS011;47279;52.426;10.488;2023-07-31T02:15:01;1.13;;;1.02;;
61413;SDS011;47279;52.426;10.488;2023-07-31T02:17:27;1.30;;;1.20;;
61413;SDS011;47279;52.426;10.488;2023-07-31T02:19:54;1.25;;;1.15;;
61413;SDS011;47279;52.426;10.488;2023-07-31T02:22:20;1.60;;;1.15;;
61413;SDS011;47279;52.426;10.488;2023-07-31T02:24:46;1.35;;;1.20;;
61413;SDS011;47279;52.426;10.488;2023-07-31T02:27:12;1.05;;;1.02;;
61413;SDS011;47279;52.426;10.488;2023-07-31T02:29:38;1.25;;;1.13;;
61413;SDS011;47279;52.426;10.488;2023-07-31T02:32:04;1.20;;;1.10;;
61413;SDS011;47279;52.426;10.488;2023-07-31T02:34:30;1.33;;;1.23;;
61413;SDS011;47279;52.426;10.488;2023-07-31T02:36:56;1.00;;;1.00;;
61413;SDS011;47279;52.426;10.488;2023-07-31T02:39:22;1.60;;;1.10;;
61413;SDS011;47279;52.426;10.488;2023-07-31T02:41:48;1.20;;;1.10;;
61413;SDS011;47279;52.426;10.488;2023-07-31T02:44:13;1.23;;;1.13;;
61413;SDS011;47279;52.426;10.488;2023-07-31T02:46:40;1.30;;;1.20;;
61413;SDS011;47279;52.426;10.488;2023-07-31T02:49:06;1.13;;;1.02;;
61413;SDS011;47279;52.426;10.488;2023-07-31T02:51:31;1.85;;;1.23;;
61413;SDS011;47279;52.426;10.488;2023-07-31T02:53:57;1.20;;;1.10;;
61413;SDS011;47279;52.426;10.488;2023-07-31T02:56:23;1.20;;;1.10;;
61413;SDS011;47279;52.426;10.488;2023-07-31T02:58:49;1.30;;;1.20;;
61413;SDS011;47279;52.426;10.488;2023-07-31T03:01:15;1.30;;;1.20;;
61413;SDS011;47279;52.426;10.488;2023-07-31T03:03:41;1.08;;;0.98;;
61413;SDS011;47279;52.426;10.488;2023-07-31T03:06:07;1.20;;;1.10;;
61413;SDS011;47279;52.426;10.488;2023-07-31T03:08:33;1.33;;;1.23;;
61413;SDS011;47279;52.426;10.488;2023-07-31T03:10:59;1.08;;;0.98;;
61413;SDS011;47279;52.426;10.488;2023-07-31T03:13:25;1.23;;;1.02;;
61413;SDS011;47279;52.426;10.488;2023-07-31T03:15:51;1.20;;;1.10;;
61413;SDS011;47279;52.426;10.488;2023-07-31T03:18:17;1.30;;;1.20;;
61413;SDS011;47279;52.426;10.488;2023-07-31T03:20:43;1.65;;;1.55;;
61413;SDS011;47279;52.426;10.488;2023-07-31T03:23:09;0.95;;;0.95;;
61413;SDS011;47279;52.426;10.488;2023-07-31T03:25:35;0.98;;;0.98;;
61413;SDS011;47279;52.426;10.488;2023-07-31T03:28:01;2.20;;;1.30;;
61413;SDS011;47279;52.426;10.488;2023-07-31T03:30:27;1.17;;;1.08;;
61413;SDS011;47279;52.426;10.488;2023-07-31T03:32:53;1.30;;;1.10;;
61413;SDS011;47279;52.426;10.488;2023-07-31T03:35:19;1.00;;;0.90;;
61413;SDS011;47279;52.426;10.488;2023-07-31T03:37:45;1.20;;;1.10;;
61413;SDS011;47279;52.426;10.488;2023-07-31T03:40:11;1.13;;;1.02;;
61413;SDS011;47279;52.426;10.488;2023-07-31T03:42:37;1.00;;;0.95;;
61413;SDS011;47279;52.426;10.488;2023-07-31T03:45:03;1.00;;;1.00;;
61413;SDS011;47279;52.426;10.488;2023-07-31T03:47:29;1.13;;;1.10;;
61413;SDS011;47279;52.426;10.488;2023-07-31T03:49:55;1.17;;;0.93;;
61413;SDS011;47279;52.426;10.488;2023-07-31T03:52:21;1.20;;;1.10;;
61413;SDS011;47279;52.426;10.488;2023-07-31T03:54:46;1.10;;;1.00;;
61413;SDS011;47279;52.426;10.488;2023-07-31T03:57:12;1.17;;;1.08;;
61413;SDS011;47279;52.426;10.488;2023-07-31T03:59:38;1.10;;;1.00;;
61413;SDS011;47279;52.426;10.488;2023-07-31T04:02:04;1.10;;;1.10;;
61413;SDS011;47279;52.426;10.488;2023-07-31T04:04:30;1.20;;;1.10;;
61413;SDS011;47279;52.426;10.488;2023-07-31T04:06:56;1.20;;;1.10;;
61413;SDS011;47279;52.426;10.488;2023-07-31T04:09:22;0.90;;;0.90;;
61413;SDS011;47279;52.426;10.488;2023-07-31T04:11:48;0.90;;;0.90;;
61413;SDS011;47279;52.426;10.488;2023-07-31T04:14:14;1.33;;;1.00;;
61413;SDS011;47279;52.426;10.488;2023-07-31T04:16:40;1.17;;;1.08;;
61413;SDS011;47279;52.426;10.488;2023-07-31T04:19:06;0.98;;;0.90;;
61413;SDS011;47279;52.426;10.488;2023-07-31T04:21:32;1.20;;;1.10;;
61413;SDS011;47279;52.426;10.488;2023-07-31T04:23:58;1.05;;;0.98;;
61413;SDS011;47279;52.426;10.488;2023-07-31T04:26:24;1.10;;;1.00;;
61413;SDS011;47279;52.426;10.488;2023-07-31T04:28:50;0.98;;;0.98;;
61413;SDS011;47279;52.426;10.488;2023-07-31T04:31:16;1.20;;;1.10;;
61413;SDS011;47279;52.426;10.488;2023-07-31T04:33:41;1.27;;;1.17;;
61413;SDS011;47279;52.426;10.488;2023-07-31T04:36:07;0.90;;;0.90;;
61413;SDS011;47279;52.426;10.488;2023-07-31T04:38:33;0.82;;;0.80;;
61413;SDS011;47279;52.426;10.488;2023-07-31T04:40:59;0.93;;;0.88;;
61413;SDS011;47279;52.426;10.488;2023-07-31T04:43:25;1.25;;;1.15;;
61413;SDS011;47279;52.426;10.488;2023-07-31T04:45:51;1.80;;;0.90;;
61413;SDS011;47279;52.426;10.488;2023-07-31T04:48:19;0.90;;;0.90;;
61413;SDS011;47279;52.426;10.488;2023-07-31T04:50:44;1.27;;;1.15;;
61413;SDS011;47279;52.426;10.488;2023-07-31T04:53:10;1.15;;;1.00;;
61413;SDS011;47279;52.426;10.488;2023-07-31T04:55:37;1.15;;;1.00;;
61413;SDS011;47279;52.426;10.488;2023-07-31T04:58:02;0.80;;;0.80;;
61413;SDS011;47279;52.426;10.488;2023-07-31T05:00:28;1.08;;;0.98;;
61413;SDS011;47279;52.426;10.488;2023-07-31T05:02:54;1.25;;;1.15;;
61413;SDS011;47279;52.426;10.488;2023-07-31T05:05:20;1.17;;;0.90;;
61413;SDS011;47279;52.426;10.488;2023-07-31T05:07:46;1.33;;;0.98;;
61413;SDS011;47279;52.426;10.488;2023-07-31T05:10:12;1.15;;;1.05;;
61413;SDS011;47279;52.426;10.488;2023-07-31T05:12:38;0.90;;;0.90;;
61413;SDS011;47279;52.426;10.488;2023-07-31T05:15:04;1.00;;;1.00;;
61413;SDS011;47279;52.426;10.488;2023-07-31T05:17:30;1.10;;;1.00;;
61413;SDS011;47279;52.426;10.488;2023-07-31T05:19:57;1.38;;;1.20;;
61413;SDS011;47279;52.426;10.488;2023-07-31T05:22:23;1.30;;;1.05;;
61413;SDS011;47279;52.426;10.488;2023-07-31T05:24:48;1.10;;;1.00;;
61413;SDS011;47279;52.426;10.488;2023-07-31T05:27:14;1.20;;;1.10;;
61413;SDS011;47279;52.426;10.488;2023-07-31T05:29:43;1.10;;;1.00;;
61413;SDS011;47279;52.426;10.488;2023-07-31T05:32:09;1.15;;;0.90;;
61413;SDS011;47279;52.426;10.488;2023-07-31T05:34:35;2.03;;;0.90;;
61413;SDS011;47279;52.426;10.488;2023-07-31T05:37:01;1.02;;;0.90;;
61413;SDS011;47279;52.426;10.488;2023-07-31T05:39:27;1.15;;;0.88;;
61413;SDS011;47279;52.426;10.488;2023-07-31T05:41:53;1.20;;;0.80;;
61413;SDS011;47279;52.426;10.488;2023-07-31T05:44:19;1.17;;;1.08;;
61413;SDS011;47279;52.426;10.488;2023-07-31T05:46:45;1.00;;;0.90;;
61413;SDS011;47279;52.426;10.488;2023-07-31T05:49:10;1.50;;;1.00;;
61413;SDS011;47279;52.426;10.488;2023-07-31T05:51:36;2.58;;;0.90;;
61413;SDS011;47279;52.426;10.488;2023-07-31T05:54:02;1.08;;;0.98;;
61413;SDS011;47279;52.426;10.488;2023-07-31T05:56:28;1.17;;;1.08;;
61413;SDS011;47279;52.426;10.488;2023-07-31T05:58:54;3.22;;;1.10;;
61413;SDS011;47279;52.426;10.488;2023-07-31T06:01:22;2.25;;;1.10;;
61413;SDS011;47279;52.426;10.488;2023-07-31T06:03:48;0.90;;;0.90;;
61413;SDS011;47279;52.426;10.488;2023-07-31T06:06:14;1.45;;;1.05;;
61413;SDS011;47279;52.426;10.488;2023-07-31T06:08:39;1.38;;;0.90;;
61413;SDS011;47279;52.426;10.488;2023-07-31T06:11:06;1.20;;;1.00;;
61413;SDS011;47279;52.426;10.488;2023-07-31T06:13:34;1.80;;;0.90;;
61413;SDS011;47279;52.426;10.488;2023-07-31T06:16:00;1.75;;;0.85;;
61413;SDS011;47279;52.426;10.488;2023-07-31T06:18:30;1.48;;;1.00;;
61413;SDS011;47279;52.426;10.488;2023-07-31T06:20:55;1.23;;;0.90;;
61413;SDS011;47279;52.426;10.488;2023-07-31T06:23:21;2.00;;;1.00;;
61413;SDS011;47279;52.426;10.488;2023-07-31T06:25:47;1.58;;;1.00;;
61413;SDS011;47279;52.426;10.488;2023-07-31T06:28:13;1.48;;;1.00;;
61413;SDS011;47279;52.426;10.488;2023-07-31T06:30:39;2.65;;;1.15;;
61413;SDS011;47279;52.426;10.488;2023-07-31T06:33:05;1.05;;;0.95;;
61413;SDS011;47279;52.426;10.488;2023-07-31T06:35:31;2.35;;;1.10;;
61413;SDS011;47279;52.426;10.488;2023-07-31T06:37:57;1.88;;;1.00;;
61413;SDS011;47279;52.426;10.488;2023-07-31T06:40:23;1.92;;;1.20;;
61413;SDS011;47279;52.426;10.488;2023-07-31T06:42:49;2.55;;;1.10;;
61413;SDS011;47279;52.426;10.488;2023-07-31T06:45:15;1.48;;;0.93;;
61413;SDS011;47279;52.426;10.488;2023-07-31T06:47:41;3.80;;;1.08;;
61413;SDS011;47279;52.426;10.488;2023-07-31T06:50:08;1.88;;;1.15;;
61413;SDS011;47279;52.426;10.488;2023-07-31T06:52:34;3.17;;;1.00;;
61413;SDS011;47279;52.426;10.488;2023-07-31T06:55:01;2.65;;;1.42;;
61413;SDS011;47279;52.426;10.488;2023-07-31T06:57:28;1.55;;;1.08;;
61413;SDS011;47279;52.426;10.488;2023-07-31T06:59:54;2.08;;;1.10;;
61413;SDS011;47279;52.426;10.488;2023-07-31T07:02:20;1.52;;;1.02;;
61413;SDS011;47279;52.426;10.488;2023-07-31T07:04:46;2.05;;;1.20;;
61413;SDS011;47279;52.426;10.488;2023-07-31T07:07:12;2.58;;;1.00;;
61413;SDS011;47279;52.426;10.488;2023-07-31T07:09:38;2.05;;;1.25;;
61413;SDS011;47279;52.426;10.488;2023-07-31T07:12:04;2.63;;;1.23;;
61413;SDS011;47279;52.426;10.488;2023-07-31T07:14:30;1.95;;;1.05;;
61413;SDS011;47279;52.426;10.488;2023-07-31T07:16:56;1.23;;;1.00;;
61413;SDS011;47279;52.426;10.488;2023-07-31T07:19:22;2.50;;;1.20;;
61413;SDS011;47279;52.426;10.488;2023-07-31T07:21:48;2.40;;;0.95;;
61413;SDS011;47279;52.426;10.488;2023-07-31T07:24:14;1.67;;;1.20;;
61413;SDS011;47279;52.426;10.488;2023-07-31T07:26:40;1.50;;;1.08;;
61413;SDS011;47279;52.426;10.488;2023-07-31T07:29:06;1.48;;;1.00;;
61413;SDS011;47279;52.426;10.488;2023-07-31T07:31:32;2.25;;;1.38;;
61413;SDS011;47279;52.426;10.488;2023-07-31T07:33:59;1.98;;;1.35;;
61413;SDS011;47279;52.426;10.488;2023-07-31T07:36:27;1.40;;;0.98;;
61413;SDS011;47279;52.426;10.488;2023-07-31T07:38:53;1.42;;;1.10;;
61413;SDS011;47279;52.426;10.488;2023-07-31T07:41:19;1.50;;;1.20;;
61413;SDS011;47279;52.426;10.488;2023-07-31T07:43:45;1.75;;;1.30;;
61413;SDS011;47279;52.426;10.488;2023-07-31T07:46:10;2.00;;;1.10;;
61413;SDS011;47279;52.426;10.488;2023-07-31T07:48:36;2.28;;;1.40;;
61413;SDS011;47279;52.426;10.488;2023-07-31T07:51:02;2.38;;;1.42;;
61413;SDS011;47279;52.426;10.488;2023-07-31T07:53:28;1.85;;;1.17;;
61413;SDS011;47279;52.426;10.488;2023-07-31T07:55:54;1.27;;;1.08;;
61413;SDS011;47279;52.426;10.488;2023-07-31T07:58:20;1.50;;;1.20;;
61413;SDS011;47279;52.426;10.488;2023-07-31T08:00:52;2.90;;;1.30;;
61413;SDS011;47279;52.426;10.488;2023-07-31T08:03:18;2.35;;;1.17;;
61413;SDS011;47279;52.426;10.488;2023-07-31T08:05:44;3.83;;;1.77;;
61413;SDS011;47279;52.426;10.488;2023-07-31T08:08:14;1.83;;;1.17;;
61413;SDS011;47279;52.426;10.488;2023-07-31T08:10:41;2.58;;;1.30;;
61413;SDS011;47279;52.426;10.488;2023-07-31T08:13:07;2.70;;;1.30;;
61413;SDS011;47279;52.426;10.488;2023-07-31T08:15:33;2.72;;;1.33;;
61413;SDS011;47279;52.426;10.488;2023-07-31T08:17:59;3.78;;;1.60;;
61413;SDS011;47279;52.426;10.488;2023-07-31T08:20:26;2.95;;;1.40;;
61413;SDS011;47279;52.426;10.488;2023-07-31T08:22:52;3.00;;;1.40;;
61413;SDS011;47279;52.426;10.488;2023-07-31T08:25:18;2.22;;;1.65;;
61413;SDS011;47279;52.426;10.488;2023-07-31T08:27:44;1.92;;;1.27;;
61413;SDS011;47279;52.426;10.488;2023-07-31T08:30:11;1.60;;;1.20;;
61413;SDS011;47279;52.426;10.488;2023-07-31T08:32:37;3.15;;;1.48;;
61413;SDS011;47279;52.426;10.488;2023-07-31T08:35:03;3.15;;;1.30;;
61413;SDS011;47279;52.426;10.488;2023-07-31T08:37:29;2.58;;;1.40;;
61413;SDS011;47279;52.426;10.488;2023-07-31T08:39:55;2.10;;;1.55;;
61413;SDS011;47279;52.426;10.488;2023-07-31T08:42:21;2.13;;;1.50;;
61413;SDS011;47279;52.426;10.488;2023-07-31T08:44:47;3.15;;;1.70;;
61413;SDS011;47279;52.426;10.488;2023-07-31T08:47:14;3.10;;;1.65;;
61413;SDS011;47279;52.426;10.488;2023-07-31T08:49:41;2.20;;;1.42;;
61413;SDS011;47279;52.426;10.488;2023-07-31T08:52:08;2.40;;;1.40;;
61413;SDS011;47279;52.426;10.488;2023-07-31T08:54:34;2.78;;;1.77;;
61413;SDS011;47279;52.426;10.488;2023-07-31T08:57:00;2.67;;;1.33;;
61413;SDS011;47279;52.426;10.488;2023-07-31T08:59:27;4.38;;;1.70;;
61413;SDS011;47279;52.426;10.488;2023-07-31T09:01:54;3.35;;;1.80;;
61413;SDS011;47279;52.426;10.488;2023-07-31T09:04:21;2.28;;;1.50;;
61413;SDS011;47279;52.426;10.488;2023-07-31T09:06:48;2.28;;;1.63;;
61413;SDS011;47279;52.426;10.488;2023-07-31T09:09:14;4.15;;;1.50;;
61413;SDS011;47279;52.426;10.488;2023-07-31T09:11:40;1.70;;;1.40;;
61413;SDS011;47279;52.426;10.488;2023-07-31T09:14:07;2.00;;;1.48;;
61413;SDS011;47279;52.426;10.488;2023-07-31T09:16:34;2.78;;;1.67;;
61413;SDS011;47279;52.426;10.488;2023-07-31T09:19:00;1.73;;;1.30;;
61413;SDS011;47279;52.426;10.488;2023-07-31T09:21:30;1.98;;;1.80;;
61413;SDS011;47279;52.426;10.488;2023-07-31T09:23:56;1.65;;;1.40;;
61413;SDS011;47279;52.426;10.488;2023-07-31T09:26:29;2.65;;;1.40;;
61413;SDS011;47279;52.426;10.488;2023-07-31T09:28:56;2.40;;;1.63;;
61413;SDS011;47279;52.426;10.488;2023-07-31T09:31:32;3.72;;;1.63;;
61413;SDS011;47279;52.426;10.488;2023-07-31T09:33:58;8.77;;;2.17;;
61413;SDS011;47279;52.426;10.488;2023-07-31T09:36:25;7.10;;;2.17;;
61413;SDS011;47279;52.426;10.488;2023-07-31T09:38:51;8.05;;;2.20;;
61413;SDS011;47279;52.426;10.488;2023-07-31T09:41:17;4.43;;;1.92;;
61413;SDS011;47279;52.426;10.488;2023-07-31T09:43:44;4.45;;;1.60;;
61413;SDS011;47279;52.426;10.488;2023-07-31T09:46:18;3.78;;;1.63;;
61413;SDS011;47279;52.426;10.488;2023-07-31T09:48:46;2.78;;;1.42;;
61413;SDS011;47279;52.426;10.488;2023-07-31T09:51:12;3.17;;;1.80;;
61413;SDS011;47279;52.426;10.488;2023-07-31T09:53:38;5.47;;;1.92;;
61413;SDS011;47279;52.426;10.488;2023-07-31T09:56:04;4.07;;;1.67;;
61413;SDS011;47279;52.426;10.488;2023-07-31T09:58:30;4.25;;;1.60;;
61413;SDS011;47279;52.426;10.488;2023-07-31T10:00:59;2.88;;;1.70;;
61413;SDS011;47279;52.426;10.488;2023-07-31T10:03:25;3.55;;;1.75;;
61413;SDS011;47279;52.426;10.488;2023-07-31T10:05:53;3.35;;;1.95;;
61413;SDS011;47279;52.426;10.488;2023-07-31T10:08:20;4.05;;;1.67;;
61413;SDS011;47279;52.426;10.488;2023-07-31T10:10:47;3.92;;;1.83;;
61413;SDS011;47279;52.426;10.488;2023-07-31T10:13:13;2.83;;;1.65;;
61413;SDS011;47279;52.426;10.488;2023-07-31T10:15:39;2.63;;;1.77;;
61413;SDS011;47279;52.426;10.488;2023-07-31T10:18:07;2.08;;;1.88;;
61413;SDS011;47279;52.426;10.488;2023-07-31T10:20:33;3.35;;;1.73;;
61413;SDS011;47279;52.426;10.488;2023-07-31T10:22:59;3.13;;;1.70;;
61413;SDS011;47279;52.426;10.488;2023-07-31T10:25:26;2.75;;;1.77;;
61413;SDS011;47279;52.426;10.488;2023-07-31T10:27:52;4.90;;;2.00;;
61413;SDS011;47279;52.426;10.488;2023-07-31T10:30:20;4.43;;;2.00;;
61413;SDS011;47279;52.426;10.488;2023-07-31T10:32:47;4.18;;;2.10;;
61413;SDS011;47279;52.426;10.488;2023-07-31T10:35:15;5.40;;;1.88;;
61413;SDS011;47279;52.426;10.488;2023-07-31T10:37:41;3.85;;;1.85;;
61413;SDS011;47279;52.426;10.488;2023-07-31T10:40:12;5.03;;;2.30;;
61413;SDS011;47279;52.426;10.488;2023-07-31T10:45:30;2.78;;;1.70;;
61413;SDS011;47279;52.426;10.488;2023-07-31T10:48:00;2.78;;;1.75;;
61413;SDS011;47279;52.426;10.488;2023-07-31T10:50:27;2.28;;;1.52;;
61413;SDS011;47279;52.426;10.488;2023-07-31T10:52:54;3.65;;;1.80;;
61413;SDS011;47279;52.426;10.488;2023-07-31T10:57:50;4.07;;;1.92;;
61413;SDS011;47279;52.426;10.488;2023-07-31T11:00:20;6.55;;;2.40;;
61413;SDS011;47279;52.426;10.488;2023-07-31T11:02:56;3.92;;;1.95;;
61413;SDS011;47279;52.426;10.488;2023-07-31T11:05:32;8.45;;;1.90;;
61413;SDS011;47279;52.426;10.488;2023-07-31T11:08:12;3.45;;;2.10;;
61413;SDS011;47279;52.426;10.488;2023-07-31T11:10:38;3.60;;;2.05;;
61413;SDS011;47279;52.426;10.488;2023-07-31T11:13:04;5.18;;;1.75;;
61413;SDS011;47279;52.426;10.488;2023-07-31T11:15:31;4.95;;;1.55;;
61413;SDS011;47279;52.426;10.488;2023-07-31T11:17:57;3.70;;;1.50;;
61413;SDS011;47279;52.426;10.488;2023-07-31T11:20:25;2.47;;;1.58;;
61413;SDS011;47279;52.426;10.488;2023-07-31T11:22:52;3.10;;;1.67;;
61413;SDS011;47279;52.426;10.488;2023-07-31T11:25:18;1.95;;;1.55;;
61413;SDS011;47279;52.426;10.488;2023-07-31T11:27:44;3.92;;;1.55;;
61413;SDS011;47279;52.426;10.488;2023-07-31T11:30:10;2.92;;;1.67;;
61413;SDS011;47279;52.426;10.488;2023-07-31T11:32:37;3.38;;;1.83;;
61413;SDS011;47279;52.426;10.488;2023-07-31T11:35:03;2.60;;;1.70;;
61413;SDS011;47279;52.426;10.488;2023-07-31T11:37:40;3.28;;;1.60;;
61413;SDS011;47279;52.426;10.488;2023-07-31T11:40:06;2.88;;;1.88;;
61413;SDS011;47279;52.426;10.488;2023-07-31T11:42:33;20.00;;;4.00;;
61413;SDS011;47279;52.426;10.488;2023-07-31T11:45:01;19.42;;;3.22;;
61413;SDS011;47279;52.426;10.488;2023-07-31T11:47:27;21.40;;;3.17;;
61413;SDS011;47279;52.426;10.488;2023-07-31T11:49:53;21.58;;;2.40;;
61413;SDS011;47279;52.426;10.488;2023-07-31T11:52:19;12.18;;;2.20;;
61413;SDS011;47279;52.426;10.488;2023-07-31T11:54:46;6.63;;;2.20;;
61413;SDS011;47279;52.426;10.488;2023-07-31T11:57:12;7.40;;;2.03;;
61413;SDS011;47279;52.426;10.488;2023-07-31T11:59:38;10.23;;;2.22;;
61413;SDS011;47279;52.426;10.488;2023-07-31T12:02:05;10.82;;;2.20;;
61413;SDS011;47279;52.426;10.488;2023-07-31T12:04:31;9.48;;;2.53;;
61413;SDS011;47279;52.426;10.488;2023-07-31T12:06:57;9.55;;;2.58;;
61413;SDS011;47279;52.426;10.488;2023-07-31T12:09:25;6.82;;;2.35;;
61413;SDS011;47279;52.426;10.488;2023-07-31T12:11:51;4.13;;;1.92;;
61413;SDS011;47279;52.426;10.488;2023-07-31T12:14:24;8.27;;;2.45;;
61413;SDS011;47279;52.426;10.488;2023-07-31T12:16:56;6.13;;;2.05;;
61413;SDS011;47279;52.426;10.488;2023-07-31T12:19:22;5.45;;;2.28;;
61413;SDS011;47279;52.426;10.488;2023-07-31T12:21:49;3.47;;;1.90;;
61413;SDS011;47279;52.426;10.488;2023-07-31T12:24:15;5.47;;;1.90;;
61413;SDS011;47279;52.426;10.488;2023-07-31T12:26:45;6.15;;;1.92;;
61413;SDS011;47279;52.426;10.488;2023-07-31T12:29:11;3.35;;;2.17;;
61413;SDS011;47279;52.426;10.488;2023-07-31T12:31:37;6.20;;;2.28;;
61413;SDS011;47279;52.426;10.488;2023-07-31T12:34:13;5.53;;;2.70;;
61413;SDS011;47279;52.426;10.488;2023-07-31T12:36:40;4.63;;;1.85;;
61413;SDS011;47279;52.426;10.488;2023-07-31T12:39:05;4.68;;;2.00;;
61413;SDS011;47279;52.426;10.488;2023-07-31T12:41:31;3.83;;;1.65;;
61413;SDS011;47279;52.426;10.488;2023-07-31T12:43:57;2.45;;;1.88;;
61413;SDS011;47279;52.426;10.488;2023-07-31T12:46:23;3.63;;;2.25;;
61413;SDS011;47279;52.426;10.488;2023-07-31T12:48:49;5.85;;;2.25;;
61413;SDS011;47279;52.426;10.488;2023-07-31T12:51:15;5.55;;;1.90;;
61413;SDS011;47279;52.426;10.488;2023-07-31T12:53:41;4.18;;;2.17;;
61413;SDS011;47279;52.426;10.488;2023-07-31T12:56:08;3.88;;;2.00;;
61413;SDS011;47279;52.426;10.488;2023-07-31T12:58:34;3.40;;;1.90;;
61413;SDS011;47279;52.426;10.488;2023-07-31T13:00:59;2.92;;;1.90;;
61413;SDS011;47279;52.426;10.488;2023-07-31T13:03:26;3.35;;;2.03;;
61413;SDS011;47279;52.426;10.488;2023-07-31T13:05:52;3.47;;;1.67;;
61413;SDS011;47279;52.426;10.488;2023-07-31T13:08:18;4.65;;;2.30;;
61413;SDS011;47279;52.426;10.488;2023-07-31T13:10:44;2.22;;;1.63;;
61413;SDS011;47279;52.426;10.488;2023-07-31T13:13:10;4.15;;;2.10;;
61413;SDS011;47279;52.426;10.488;2023-07-31T13:15:36;4.22;;;1.98;;
61413;SDS011;47279;52.426;10.488;2023-07-31T13:18:02;3.40;;;1.83;;
61413;SDS011;47279;52.426;10.488;2023-07-31T13:20:28;3.65;;;1.63;;
61413;SDS011;47279;52.426;10.488;2023-07-31T13:22:54;3.83;;;1.80;;
61413;SDS011;47279;52.426;10.488;2023-07-31T13:25:20;4.00;;;2.10;;
61413;SDS011;47279;52.426;10.488;2023-07-31T13:27:46;3.58;;;1.70;;
61413;SDS011;47279;52.426;10.488;2023-07-31T13:30:12;3.42;;;1.70;;
61413;SDS011;47279;52.426;10.488;2023-07-31T13:32:38;2.53;;;1.90;;
61413;SDS011;47279;52.426;10.488;2023-07-31T13:35:07;4.50;;;2.00;;
61413;SDS011;47279;52.426;10.488;2023-07-31T13:37:34;3.92;;;1.80;;
61413;SDS011;47279;52.426;10.488;2023-07-31T13:40:00;3.20;;;1.90;;
61413;SDS011;47279;52.426;10.488;2023-07-31T13:42:26;2.67;;;1.92;;
61413;SDS011;47279;52.426;10.488;2023-07-31T13:44:53;6.18;;;2.00;;
61413;SDS011;47279;52.426;10.488;2023-07-31T13:47:21;11.18;;;2.00;;
61413;SDS011;47279;52.426;10.488;2023-07-31T13:49:47;6.32;;;2.20;;
61413;SDS011;47279;52.426;10.488;2023-07-31T13:52:14;3.78;;;1.70;;
61413;SDS011;47279;52.426;10.488;2023-07-31T13:54:40;7.22;;;2.30;;
61413;SDS011;47279;52.426;10.488;2023-07-31T13:57:07;5.10;;;1.92;;
61413;SDS011;47279;52.426;10.488;2023-07-31T13:59:33;3.38;;;1.70;;
61413;SDS011;47279;52.426;10.488;2023-07-31T14:01:59;4.68;;;2.00;;
61413;SDS011;47279;52.426;10.488;2023-07-31T14:04:25;3.70;;;1.80;;
61413;SDS011;47279;52.426;10.488;2023-07-31T14:06:51;8.25;;;2.10;;
61413;SDS011;47279;52.426;10.488;2023-07-31T14:09:17;3.90;;;1.90;;
61413;SDS011;47279;52.426;10.488;2023-07-31T14:11:43;4.75;;;2.08;;
61413;SDS011;47279;52.426;10.488;2023-07-31T14:14:09;2.65;;;1.67;;
61413;SDS011;47279;52.426;10.488;2023-07-31T14:16:35;2.45;;;1.65;;
61413;SDS011;47279;52.426;10.488;2023-07-31T14:19:01;2.50;;;1.70;;
61413;SDS011;47279;52.426;10.488;2023-07-31T14:21:27;3.50;;;2.15;;
61413;SDS011;47279;52.426;10.488;2023-07-31T14:23:53;4.13;;;1.60;;
61413;SDS011;47279;52.426;10.488;2023-07-31T14:26:19;4.60;;;2.45;;
61413;SDS011;47279;52.426;10.488;2023-07-31T14:28:45;2.83;;;1.80;;
61413;SDS011;47279;52.426;10.488;2023-07-31T14:31:11;2.85;;;1.65;;
61413;SDS011;47279;52.426;10.488;2023-07-31T14:33:37;2.17;;;1.60;;
61413;SDS011;47279;52.426;10.488;2023-07-31T14:36:03;3.40;;;1.70;;